Weather History for Newport, VT

Change the Weather History Date:

Wednesday, November 2, 2011

  Actual Average Record
Temperature  
Mean Temperature 46 °F -  
Max Temperature 59 °F 52 °F 74 °F (1950)
Min Temperature 32 °F 34 °F 11 °F (1951)
Degree Days  
Heating Degree Days 20    
Moisture  
Dew Point 31 °F    
Average Humidity 59    
Maximum Humidity 87    
Minimum Humidity 34    
Precipitation  
Precipitation 0.00 in - - ()
Sea Level Pressure  
Sea Level Pressure 30.27 in    
Wind  
Wind Speed 6 mph (South)    
Max Wind Speed 12 mph    
Max Gust Speed 17 mph    
Visibility 10 miles    
Events      
Averages and records for this station are not official NWS values.
T = Trace of Precipitation, MM = Missing Value Source: NWS Daily Summary

Daily Weather History Graph

Daily Weather History Graph

Search for Another Location

Airport:

Trip Planner

Search our weather history database for the weather conditions in past years. The results will help you decide how hot, cold, wet, or windy it might be!

Date:

Astronomy

Nov. 02, 2011 Rise Set
Actual Time 7:28 AM EDT 5:36 PM EDT
Civil Twilight 6:57 AM EDT 6:06 PM EDT
Nautical Twilight 6:22 AM EDT 6:41 PM EDT
Astronomical Twilight 5:48 AM EDT 7:15 PM EDT
Moon 1:46 PM EDT (11/2) No Moon Set
Length of Visible Light 11h 09m
Length of Day
10h 08m
Waxing Crescent, 50% of the Moon is Illuminated
Nov 2
Waxing Crescent
Nov 2
First Quarter
Nov 10
Full
Nov 18
Last Quarter
Nov 25
New

Hourly Weather History & Observations

Time (EDT) Temp. Windchill Dew Point Humidity Pressure Visibility Wind Dir Wind Speed Gust Speed Precip Events Conditions
12:15 AM 41.0 °F 38.0 °F 28.4 °F 61% 30.32 in 10.0 mi South 4.6 mph - N/A   Clear
12:35 AM 39.2 °F 35.0 °F 28.4 °F 65% 30.31 in 10.0 mi South 5.8 mph - N/A   Clear
12:55 AM 39.2 °F 37.0 °F 28.4 °F 65% 30.31 in 10.0 mi South 3.5 mph - N/A   Clear
1:15 AM 37.4 °F 34.9 °F 28.4 °F 70% 30.31 in 10.0 mi South 3.5 mph - N/A   Clear
1:35 AM 39.2 °F 35.9 °F 28.4 °F 65% 30.31 in 10.0 mi South 4.6 mph - N/A   Clear
1:55 AM 35.6 °F 31.7 °F 28.4 °F 75% 30.31 in 10.0 mi South 4.6 mph - N/A   Clear
2:15 AM 35.6 °F 31.7 °F 28.4 °F 75% 30.31 in 10.0 mi South 4.6 mph - N/A   Clear
2:35 AM 33.8 °F 28.6 °F 28.4 °F 81% 30.31 in 10.0 mi SW 5.8 mph - N/A   Clear
3:15 AM 33.8 °F 29.6 °F 28.4 °F 81% 30.31 in 10.0 mi SSW 4.6 mph - N/A   Clear
3:35 AM 33.8 °F 28.6 °F 28.4 °F 81% 30.31 in 10.0 mi SSW 5.8 mph - N/A   Clear
3:55 AM 33.8 °F 28.6 °F 28.4 °F 81% 30.31 in 10.0 mi SW 5.8 mph - N/A   Clear
4:15 AM 33.8 °F 28.6 °F 30.2 °F 87% 30.32 in 10.0 mi SSW 5.8 mph - N/A   Clear
4:35 AM 33.8 °F 29.6 °F 28.4 °F 81% 30.32 in 10.0 mi SSW 4.6 mph - N/A   Clear
4:55 AM 33.8 °F 28.6 °F 28.4 °F 81% 30.32 in 10.0 mi SSW 5.8 mph - N/A   Clear
5:55 AM 32.0 °F 26.4 °F 28.4 °F 87% 30.33 in 10.0 mi SSW 5.8 mph - N/A   Clear
6:55 AM 32.0 °F 27.5 °F 28.4 °F 87% 30.34 in 10.0 mi SW 4.6 mph - N/A   Clear
7:15 AM 32.0 °F 27.5 °F 28.4 °F 87% 30.34 in 10.0 mi SSW 4.6 mph - N/A   Clear
7:35 AM 32.0 °F 25.6 °F 28.4 °F 87% 30.34 in 10.0 mi SSW 6.9 mph - N/A   Clear
7:55 AM 32.0 °F 26.4 °F 28.4 °F 87% 30.34 in 10.0 mi SSW 5.8 mph - N/A   Clear
8:35 AM 33.8 °F 28.6 °F 28.4 °F 81% 30.35 in 10.0 mi SW 5.8 mph - N/A   Clear
8:55 AM 35.6 °F 30.7 °F 30.2 °F 81% 30.35 in 10.0 mi SSW 5.8 mph - N/A   Clear
9:15 AM 37.4 °F 32.8 °F 32.0 °F 81% 30.34 in 10.0 mi SSW 5.8 mph - N/A   Clear
9:35 AM 39.2 °F 35.9 °F 32.0 °F 75% 30.33 in 10.0 mi SSW 4.6 mph - N/A   Clear
9:55 AM 42.8 °F 39.3 °F 32.0 °F 66% 30.33 in 10.0 mi SSW 5.8 mph - N/A   Clear
10:15 AM 46.4 °F 42.9 °F 32.0 °F 57% 30.33 in 10.0 mi South 6.9 mph - N/A   Clear
10:35 AM 46.4 °F 43.5 °F 33.8 °F 62% 30.32 in 10.0 mi SSW 5.8 mph - N/A   Clear
10:55 AM 48.2 °F - 33.8 °F 58% 30.32 in 10.0 mi South 5.8 mph - N/A   Clear
11:15 AM 50.0 °F - 33.8 °F 54% 30.31 in 10.0 mi SW 6.9 mph - N/A   Clear
11:35 AM 51.8 °F - 33.8 °F 50% 30.30 in 10.0 mi SE 8.1 mph - N/A   Clear
11:55 AM 53.6 °F - 33.8 °F 47% 30.30 in 10.0 mi SSW 4.6 mph - N/A   Clear
12:15 PM 53.6 °F - 33.8 °F 47% 30.29 in 10.0 mi SSW 5.8 mph - N/A   Clear
12:35 PM 53.6 °F - 33.8 °F 47% 30.27 in 10.0 mi South 4.6 mph - N/A   Clear
12:55 PM 55.4 °F - 32.0 °F 41% 30.26 in 10.0 mi South 5.8 mph - N/A   Clear
1:15 PM 55.4 °F - 32.0 °F 41% 30.25 in 10.0 mi South 9.2 mph - N/A   Clear
1:35 PM 57.2 °F - 32.0 °F 38% 30.24 in 10.0 mi SSW 10.4 mph 17.3 mph N/A   Clear
1:55 PM 57.2 °F - 30.2 °F 36% 30.22 in 10.0 mi SSW 9.2 mph - N/A   Clear
2:15 PM 59.0 °F - 32.0 °F 36% 30.22 in 10.0 mi South 4.6 mph - N/A   Clear
2:35 PM 59.0 °F - 30.2 °F 34% 30.21 in 10.0 mi South 8.1 mph 16.1 mph N/A   Clear
2:55 PM 59.0 °F - 32.0 °F 36% 30.21 in 10.0 mi SSW 9.2 mph 16.1 mph N/A   Clear
3:15 PM 59.0 °F - 30.2 °F 34% 30.21 in 10.0 mi South 9.2 mph - N/A   Clear
3:35 PM 57.2 °F - 30.2 °F 36% 30.20 in 10.0 mi South 6.9 mph - N/A   Clear
3:55 PM 59.0 °F - 32.0 °F 36% 30.20 in 10.0 mi SSW 8.1 mph - N/A   Clear
4:15 PM 59.0 °F - 30.2 °F 34% 30.20 in 10.0 mi South 8.1 mph - N/A   Clear
4:35 PM 57.2 °F - 30.2 °F 36% 30.20 in 10.0 mi South 4.6 mph - N/A   Clear
4:55 PM 57.2 °F - 32.0 °F 38% 30.19 in 10.0 mi South 5.8 mph - N/A   Clear
5:15 PM 53.6 °F - 32.0 °F 44% 30.19 in 10.0 mi South 5.8 mph - N/A   Clear
5:35 PM 53.6 °F - 32.0 °F 44% 30.19 in 10.0 mi South 6.9 mph - N/A   Clear
5:55 PM 50.0 °F - 32.0 °F 50% 30.19 in 10.0 mi SSE 6.9 mph - N/A   Clear
6:15 PM 51.8 °F - 32.0 °F 47% 30.19 in 10.0 mi South 8.1 mph - N/A   Clear
6:35 PM 51.8 °F - 32.0 °F 47% 30.19 in 10.0 mi South 10.4 mph - N/A   Clear
6:55 PM 51.8 °F - 32.0 °F 47% 30.19 in 10.0 mi South 9.2 mph - N/A   Clear
7:15 PM 51.8 °F - 32.0 °F 47% 30.19 in 10.0 mi South 11.5 mph - N/A   Clear
7:35 PM 51.8 °F - 32.0 °F 47% 30.19 in 10.0 mi SSE 11.5 mph - N/A   Clear
7:55 PM 51.8 °F - 32.0 °F 47% 30.19 in 10.0 mi South 10.4 mph - N/A   Clear
8:15 PM 51.8 °F - 32.0 °F 47% 30.18 in 10.0 mi SSE 10.4 mph 16.1 mph N/A   Clear
8:35 PM 50.0 °F - 32.0 °F 50% 30.17 in 10.0 mi SSE 8.1 mph - N/A   Clear
8:55 PM 48.2 °F - 32.0 °F 54% 30.16 in 10.0 mi SSE 6.9 mph - N/A   Clear
9:15 PM 50.0 °F - 32.0 °F 50% 30.16 in 10.0 mi South 9.2 mph - N/A   Clear
9:35 PM 50.0 °F - 32.0 °F 50% 30.15 in 10.0 mi South 9.2 mph - N/A   Clear
10:15 PM 48.2 °F - 32.0 °F 54% 30.15 in 10.0 mi South 5.8 mph - N/A   Clear
10:35 PM 48.2 °F - 32.0 °F 54% 30.15 in 10.0 mi South 8.1 mph - N/A   Clear
10:55 PM 46.4 °F 43.5 °F 32.0 °F 57% 30.15 in 10.0 mi SSE 5.8 mph - N/A   Clear
11:15 PM 46.4 °F 41.9 °F 32.0 °F 57% 30.15 in 10.0 mi SSE 9.2 mph - N/A   Clear
11:35 PM 44.6 °F 40.2 °F 32.0 °F 61% 30.15 in 10.0 mi SSE 8.1 mph - N/A   Clear
11:55 PM 44.6 °F 40.2 °F 32.0 °F 61% 30.14 in 10.0 mi SSE 8.1 mph - N/A   Clear